KATS

Artesia Municipal Airport

Artesia, New Mexico, USA
METAR KATS 190315Z AUTO 19009KT 10SM CLR 02/M12 A3014 RMK AO2
Observed Flight Rules
Jan-19 @ 03:15 UTC (35 minutes ago) Visual Flight Rules
Wind Visibility Clouds
190° at 9 knots 10 miles
  • Clear skies
Temperatures Readings
Current 2°C / 36°F
Dewpoint -12°C / 10°F
Humidity 35%
Altimeter 30.14" Hg
Pressure 1021 hPa
Elevation 1081
METAR KATS 190315Z AUTO 19009KT 10SM CLR 02/M12 A3014 RMK AO2
Observed Flight Rules
Jan-19 @ 03:15 UTC
(35 minutes ago)
VFR
Wind Visibility
190° at 9 knots 10 miles
Clouds
  • Clear skies
Temperature Dewpoint
2°C / 36°F -12°C / 10°F
Humidity Altimeter Pressure
35% 30.14" Hg 1021 hPa